PWSweather.com
Personal Weather Stations
Station Observations
THRCKWTHR1
Aveley, EssexGB RM154EL

AveleyEssexGB RM154EL

Lat: 51.5000552, Lon: 0.2501753000000235

Elevation: 98.5

Station Type: Oregon Scientific WMR88

Latest ConditionsUpdated 5:15:00 PM GMT Thursday, Jan 18, 2018
Currently Today's Max Today's Min Today's Average
Temperature 43.3°F6.3°C 51.1°F10.6°C 43.3°F6.3°C 47.0°F8.3°C
Dew Point 36.6°F2.6°C 48.4°F9.1°C 33.9°F1.1°C 39.4°F4.1°C
Winds 2.5 mph SW4.0 kmh SW 24.8 mph SSW39.9 kmh SSW - 7.7 mph 12.4 kmh
Wind Gusts 4.9 mph7.9 kmh 37.9 mph61.0 kmh - -
Humidity 77% 97% 62% 75%
Pressure 29.62 in1003.0 mb 29.62 in1003.0 mb 29.24 in990.2 mb -
Precipitation - 0.05 in1.3 mm - -
Hour Temp Dew Point Humidity Winds Wind Gusts Pressure Precip Precip Rate Daily Precip Total
05:15 PM 43.3°F6.3°C 36.6°F2.6°C 77% 2.5 mph SW4.0 kmh SW 4.9 mph7.9 kmh 29.62 in1003.0 mb 0.00 in0.0 mm 0.00 in0.0 mm 0.05 in1.3 mm
05:10 PM 43.5°F6.4°C 36.8°F2.7°C 77% 1.9 mph NW3.1 kmh NW 4.1 mph6.6 kmh 29.62 in1003.0 mb 0.00 in0.0 mm 0.00 in0.0 mm 0.05 in1.3 mm
05:05 PM 43.5°F6.4°C 36.8°F2.7°C 77% 1.4 mph WNW2.3 kmh WNW 4.4 mph7.1 kmh 29.62 in1003.0 mb 0.00 in0.0 mm 0.00 in0.0 mm 0.05 in1.3 mm
05:00 PM 43.7°F6.5°C 36.6°F2.6°C 76% 4.4 mph NW7.1 kmh NW 7.6 mph12.2 kmh 29.62 in1003.0 mb 0.00 in0.0 mm 0.00 in0.0 mm 0.05 in1.3 mm
04:55 PM 43.7°F6.5°C 36.6°F2.6°C 76% Calm Calm 7.6 mph12.2 kmh 29.62 in1003.0 mb 0.00 in0.0 mm 0.00 in0.0 mm 0.05 in1.3 mm
04:50 PM 44.1°F6.7°C 36.6°F2.6°C 75% 2.7 mph N4.3 kmh N 9.0 mph14.5 kmh 29.62 in1003.0 mb 0.00 in0.0 mm 0.00 in0.0 mm 0.05 in1.3 mm
04:45 PM 44.8°F7.1°C 36.3°F2.4°C 72% 2.5 mph NW4.0 kmh NW 9.0 mph14.5 kmh 29.62 in1003.0 mb 0.00 in0.0 mm 0.00 in0.0 mm 0.05 in1.3 mm
04:40 PM 44.4°F6.9°C 36.3°F2.4°C 73% 6.5 mph WSW10.5 kmh WSW 8.7 mph14.0 kmh 29.59 in1002.0 mb 0.00 in0.0 mm 0.00 in0.0 mm 0.05 in1.3 mm
04:35 PM 43.9°F6.6°C 36.5°F2.5°C 75% 4.9 mph W7.9 kmh W 8.7 mph14.0 kmh 29.59 in1002.0 mb 0.00 in0.0 mm 0.00 in0.0 mm 0.05 in1.3 mm
04:30 PM 43.9°F6.6°C 36.5°F2.5°C 75% Calm Calm 3.5 mph5.6 kmh 29.59 in1002.0 mb 0.00 in0.0 mm 0.00 in0.0 mm 0.05 in1.3 mm
04:25 PM 44.1°F6.7°C 36.6°F2.6°C 75% 1.1 mph N1.8 kmh N 3.5 mph5.6 kmh 29.59 in1002.0 mb 0.00 in0.0 mm 0.00 in0.0 mm 0.05 in1.3 mm
04:20 PM 44.2°F6.8°C 36.8°F2.7°C 75% 1.9 mph NW3.1 kmh NW 3.5 mph5.6 kmh 29.59 in1002.0 mb 0.00 in0.0 mm 0.00 in0.0 mm 0.05 in1.3 mm
04:15 PM 44.4°F6.9°C 36.6°F2.6°C 74% 1.9 mph NW3.1 kmh NW 3.8 mph6.1 kmh 29.59 in1002.0 mb 0.00 in0.0 mm 0.00 in0.0 mm 0.05 in1.3 mm
04:10 PM 44.8°F7.1°C 36.7°F2.6°C 73% 3.8 mph NNW6.1 kmh NNW 3.8 mph6.1 kmh 29.59 in1002.0 mb 0.00 in0.0 mm 0.00 in0.0 mm 0.05 in1.3 mm
04:05 PM 45.0°F7.2°C 36.8°F2.7°C 73% Calm Calm 4.9 mph7.9 kmh 29.59 in1002.0 mb 0.00 in0.0 mm 0.00 in0.0 mm 0.05 in1.3 mm
04:00 PM 45.3°F7.4°C 37.2°F2.9°C 73% 1.4 mph N2.3 kmh N 5.2 mph8.4 kmh 29.59 in1002.0 mb 0.00 in0.0 mm 0.00 in0.0 mm 0.05 in1.3 mm
03:55 PM 45.3°F7.4°C 36.8°F2.7°C 72% 3.3 mph NNW5.3 kmh NNW 5.7 mph9.2 kmh 29.59 in1002.0 mb 0.00 in0.0 mm 0.00 in0.0 mm 0.05 in1.3 mm
03:50 PM 45.5°F7.5°C 37.0°F2.8°C 72% 3.3 mph NNW5.3 kmh NNW 8.2 mph13.2 kmh 29.59 in1002.0 mb 0.00 in0.0 mm 0.00 in0.0 mm 0.05 in1.3 mm
03:45 PM 45.9°F7.7°C 37.0°F2.8°C 71% 5.7 mph NW9.2 kmh NW 8.2 mph13.2 kmh 29.59 in1002.0 mb 0.00 in0.0 mm 0.00 in0.0 mm 0.05 in1.3 mm
03:40 PM 46.4°F8.0°C 37.1°F2.8°C 70% 8.2 mph N13.2 kmh N 8.2 mph13.2 kmh 29.59 in1002.0 mb 0.00 in0.0 mm 0.00 in0.0 mm 0.05 in1.3 mm
03:35 PM 46.6°F8.1°C 37.7°F3.2°C 71% 2.7 mph NE4.3 kmh NE 4.9 mph7.9 kmh 29.59 in1002.0 mb 0.00 in0.0 mm 0.00 in0.0 mm 0.05 in1.3 mm
03:30 PM 46.6°F8.1°C 37.3°F2.9°C 70% 3.3 mph N5.3 kmh N 7.6 mph12.2 kmh 29.59 in1002.0 mb 0.00 in0.0 mm 0.00 in0.0 mm 0.05 in1.3 mm
03:25 PM 46.8°F8.2°C 37.1°F2.8°C 69% 1.4 mph S2.3 kmh S 7.6 mph12.2 kmh 29.59 in1002.0 mb 0.00 in0.0 mm 0.00 in0.0 mm 0.05 in1.3 mm
03:20 PM 46.8°F8.2°C 37.1°F2.8°C 69% 4.4 mph S7.1 kmh S 7.1 mph11.4 kmh 29.59 in1002.0 mb 0.00 in0.0 mm 0.00 in0.0 mm 0.05 in1.3 mm
03:15 PM 46.8°F8.2°C 37.1°F2.8°C 69% 7.1 mph S11.4 kmh S 7.1 mph11.4 kmh 29.59 in1002.0 mb 0.00 in0.0 mm 0.00 in0.0 mm 0.05 in1.3 mm
03:10 PM 46.8°F8.2°C 37.1°F2.8°C 69% 2.5 mph SW4.0 kmh SW 7.6 mph12.2 kmh 29.59 in1002.0 mb 0.00 in0.0 mm 0.00 in0.0 mm 0.05 in1.3 mm
03:05 PM 46.8°F8.2°C 37.1°F2.8°C 69% 3.0 mph SW4.8 kmh SW 7.6 mph12.2 kmh 29.59 in1002.0 mb 0.00 in0.0 mm 0.00 in0.0 mm 0.05 in1.3 mm
03:00 PM 46.8°F8.2°C 37.1°F2.8°C 69% 7.6 mph W12.2 kmh W 7.6 mph12.2 kmh 29.59 in1002.0 mb 0.00 in0.0 mm 0.00 in0.0 mm 0.05 in1.3 mm
02:55 PM 46.9°F8.3°C 37.7°F3.2°C 70% 1.6 mph SSW2.6 kmh SSW 7.1 mph11.4 kmh 29.59 in1002.0 mb 0.00 in0.0 mm 0.00 in0.0 mm 0.05 in1.3 mm
02:50 PM 46.9°F8.3°C 37.7°F3.2°C 70% 1.6 mph S2.6 kmh S 7.1 mph11.4 kmh 29.59 in1002.0 mb 0.00 in0.0 mm 0.00 in0.0 mm 0.05 in1.3 mm
02:45 PM 47.1°F8.4°C 37.5°F3.1°C 69% 3.3 mph W5.3 kmh W 7.4 mph11.9 kmh 29.59 in1002.0 mb 0.00 in0.0 mm 0.00 in0.0 mm 0.05 in1.3 mm
02:40 PM 47.3°F8.5°C 36.9°F2.7°C 67% 3.3 mph W5.3 kmh W 7.4 mph11.9 kmh 29.59 in1002.0 mb 0.00 in0.0 mm 0.00 in0.0 mm 0.05 in1.3 mm
02:35 PM 47.5°F8.6°C 36.7°F2.6°C 66% 7.4 mph SW11.9 kmh SW 10.6 mph17.1 kmh 29.59 in1002.0 mb 0.00 in0.0 mm 0.00 in0.0 mm 0.05 in1.3 mm
02:30 PM 47.5°F8.6°C 37.1°F2.8°C 67% 10.6 mph SSW17.1 kmh SSW 10.6 mph17.1 kmh 29.59 in1002.0 mb 0.00 in0.0 mm 0.00 in0.0 mm 0.05 in1.3 mm
02:25 PM 47.5°F8.6°C 37.1°F2.8°C 67% 3.0 mph SW4.8 kmh SW 7.1 mph11.4 kmh 29.59 in1002.0 mb 0.00 in0.0 mm 0.00 in0.0 mm 0.05 in1.3 mm
02:20 PM 47.3°F8.5°C 36.5°F2.5°C 66% 4.9 mph WSW7.9 kmh WSW 6.8 mph10.9 kmh 29.59 in1002.0 mb 0.00 in0.0 mm 0.00 in0.0 mm 0.05 in1.3 mm
02:15 PM 47.3°F8.5°C 37.3°F2.9°C 68% 6.0 mph WNW9.7 kmh WNW 6.5 mph10.5 kmh 29.59 in1002.0 mb 0.00 in0.0 mm 0.00 in0.0 mm 0.05 in1.3 mm
02:10 PM 47.3°F8.5°C 37.3°F2.9°C 68% 4.1 mph WSW6.6 kmh WSW 7.6 mph12.2 kmh 29.59 in1002.0 mb 0.00 in0.0 mm 0.00 in0.0 mm 0.05 in1.3 mm
02:05 PM 47.3°F8.5°C 37.3°F2.9°C 68% 2.5 mph SSW4.0 kmh SSW 8.7 mph14.0 kmh 29.59 in1002.0 mb 0.00 in0.0 mm 0.00 in0.0 mm 0.05 in1.3 mm
02:00 PM 47.3°F8.5°C 36.9°F2.7°C 67% 4.6 mph SW7.4 kmh SW 8.7 mph14.0 kmh 29.59 in1002.0 mb 0.00 in0.0 mm 0.00 in0.0 mm 0.05 in1.3 mm
01:55 PM 47.3°F8.5°C 36.9°F2.7°C 67% 3.5 mph SW5.6 kmh SW 6.0 mph9.7 kmh 29.59 in1002.0 mb 0.00 in0.0 mm 0.00 in0.0 mm 0.05 in1.3 mm
01:50 PM 47.3°F8.5°C 36.5°F2.5°C 66% 4.6 mph SSW7.4 kmh SSW 7.1 mph11.4 kmh 29.59 in1002.0 mb 0.00 in0.0 mm 0.00 in0.0 mm 0.05 in1.3 mm
01:45 PM 47.5°F8.6°C 36.7°F2.6°C 66% 6.0 mph SW9.7 kmh SW 7.1 mph11.4 kmh 29.59 in1002.0 mb 0.00 in0.0 mm 0.00 in0.0 mm 0.05 in1.3 mm
01:40 PM 47.5°F8.6°C 36.7°F2.6°C 66% 2.7 mph WSW4.3 kmh WSW 5.2 mph8.4 kmh 29.59 in1002.0 mb 0.00 in0.0 mm 0.00 in0.0 mm 0.05 in1.3 mm
01:35 PM 47.3°F8.5°C 36.9°F2.7°C 67% 5.2 mph SW8.4 kmh SW 7.9 mph12.7 kmh 29.59 in1002.0 mb 0.00 in0.0 mm 0.00 in0.0 mm 0.05 in1.3 mm
01:30 PM 47.3°F8.5°C 36.9°F2.7°C 67% 1.4 mph SW2.3 kmh SW 9.0 mph14.5 kmh 29.59 in1002.0 mb 0.00 in0.0 mm 0.00 in0.0 mm 0.05 in1.3 mm
01:25 PM 47.5°F8.6°C 37.1°F2.8°C 67% 9.0 mph SW14.5 kmh SW 9.8 mph15.8 kmh 29.59 in1002.0 mb 0.00 in0.0 mm 0.00 in0.0 mm 0.05 in1.3 mm
01:20 PM 47.5°F8.6°C 36.7°F2.6°C 66% 7.9 mph N12.7 kmh N 9.8 mph15.8 kmh 29.59 in1002.0 mb 0.00 in0.0 mm 0.00 in0.0 mm 0.05 in1.3 mm
01:15 PM 47.5°F8.6°C 37.1°F2.8°C 67% 9.8 mph NNW15.8 kmh NNW 9.8 mph15.8 kmh 29.59 in1002.0 mb 0.00 in0.0 mm 0.00 in0.0 mm 0.05 in1.3 mm
01:10 PM 47.3°F8.5°C 36.9°F2.7°C 67% 3.8 mph NNW6.1 kmh NNW 7.9 mph12.7 kmh 29.59 in1002.0 mb 0.00 in0.0 mm 0.00 in0.0 mm 0.05 in1.3 mm
01:05 PM 47.5°F8.6°C 37.1°F2.8°C 67% 1.9 mph SW3.1 kmh SW 7.9 mph12.7 kmh 29.59 in1002.0 mb 0.00 in0.0 mm 0.00 in0.0 mm 0.05 in1.3 mm
01:00 PM 47.5°F8.6°C 37.1°F2.8°C 67% 4.9 mph SW7.9 kmh SW 7.4 mph11.9 kmh 29.59 in1002.0 mb 0.00 in0.0 mm 0.00 in0.0 mm 0.05 in1.3 mm
12:55 PM 47.7°F8.7°C 36.5°F2.5°C 65% 1.4 mph SW2.3 kmh SW 9.3 mph15.0 kmh 29.59 in1002.0 mb 0.00 in0.0 mm 0.00 in0.0 mm 0.05 in1.3 mm
12:50 PM 47.8°F8.8°C 36.6°F2.6°C 65% 6.8 mph SW10.9 kmh SW 9.3 mph15.0 kmh 29.59 in1002.0 mb 0.00 in0.0 mm 0.00 in0.0 mm 0.05 in1.3 mm
12:45 PM 48.0°F8.9°C 36.8°F2.7°C 65% 3.8 mph W6.1 kmh W 7.9 mph12.7 kmh 29.59 in1002.0 mb 0.00 in0.0 mm 0.00 in0.0 mm 0.05 in1.3 mm
12:40 PM 48.0°F8.9°C 37.6°F3.1°C 67% 5.2 mph S8.4 kmh S 6.5 mph10.5 kmh 29.59 in1002.0 mb 0.00 in0.0 mm 0.00 in0.0 mm 0.05 in1.3 mm
12:35 PM 48.2°F9.0°C 37.4°F3.0°C 66% 3.5 mph S5.6 kmh S 4.4 mph7.1 kmh 29.59 in1002.0 mb 0.00 in0.0 mm 0.00 in0.0 mm 0.05 in1.3 mm
12:30 PM 48.4°F9.1°C 37.9°F3.3°C 67% 1.9 mph SSW3.1 kmh SSW 5.2 mph8.4 kmh 29.59 in1002.0 mb 0.00 in0.0 mm 0.00 in0.0 mm 0.05 in1.3 mm
12:25 PM 48.6°F9.2°C 38.1°F3.4°C 67% 3.8 mph W6.1 kmh W 5.2 mph8.4 kmh 29.59 in1002.0 mb 0.00 in0.0 mm 0.00 in0.0 mm 0.05 in1.3 mm
12:20 PM 48.4°F9.1°C 37.5°F3.1°C 66% 3.5 mph S5.6 kmh S 8.5 mph13.7 kmh 29.59 in1002.0 mb 0.00 in0.0 mm 0.00 in0.0 mm 0.05 in1.3 mm
12:15 PM 48.2°F9.0°C 37.4°F3.0°C 66% 8.5 mph SSE13.7 kmh SSE 8.5 mph13.7 kmh 29.59 in1002.0 mb 0.00 in0.0 mm 0.00 in0.0 mm 0.05 in1.3 mm
12:10 PM 48.4°F9.1°C 37.5°F3.1°C 66% 3.0 mph SW4.8 kmh SW 9.3 mph15.0 kmh 29.59 in1002.0 mb 0.00 in0.0 mm 0.00 in0.0 mm 0.05 in1.3 mm
12:05 PM 48.4°F9.1°C 37.5°F3.1°C 66% 4.6 mph SW7.4 kmh SW 9.8 mph15.8 kmh 29.59 in1002.0 mb 0.00 in0.0 mm 0.00 in0.0 mm 0.05 in1.3 mm
12:00 PM 48.0°F8.9°C 36.8°F2.7°C 65% 4.6 mph SW7.4 kmh SW 9.8 mph15.8 kmh 29.59 in1002.0 mb 0.00 in0.0 mm 0.00 in0.0 mm 0.05 in1.3 mm
11:55 AM 48.2°F9.0°C 36.6°F2.6°C 64% 3.3 mph SSW5.3 kmh SSW 7.6 mph12.2 kmh 29.59 in1002.0 mb 0.00 in0.0 mm 0.00 in0.0 mm 0.05 in1.3 mm
11:50 AM 47.8°F8.8°C 37.4°F3.0°C 67% 5.2 mph W8.4 kmh W 7.4 mph11.9 kmh 29.59 in1002.0 mb 0.00 in0.0 mm 0.00 in0.0 mm 0.05 in1.3 mm
11:45 AM 47.8°F8.8°C 37.4°F3.0°C 67% 5.2 mph WNW8.4 kmh WNW 7.4 mph11.9 kmh 29.59 in1002.0 mb 0.00 in0.0 mm 0.00 in0.0 mm 0.05 in1.3 mm
11:40 AM 47.8°F8.8°C 37.8°F3.2°C 68% 4.9 mph WSW7.9 kmh WSW 9.6 mph15.4 kmh 29.62 in1003.0 mb 0.00 in0.0 mm 0.00 in0.0 mm 0.05 in1.3 mm
11:35 AM 47.7°F8.7°C 37.6°F3.1°C 68% 9.6 mph SW15.4 kmh SW 9.6 mph15.4 kmh 29.62 in1003.0 mb 0.00 in0.0 mm 0.00 in0.0 mm 0.05 in1.3 mm
11:30 AM 47.8°F8.8°C 37.8°F3.2°C 68% 7.9 mph N12.7 kmh N 7.9 mph12.7 kmh 29.62 in1003.0 mb 0.00 in0.0 mm 0.00 in0.0 mm 0.05 in1.3 mm
11:25 AM 47.5°F8.6°C 37.4°F3.0°C 68% 5.5 mph SSE8.9 kmh SSE 7.4 mph11.9 kmh 29.62 in1003.0 mb 0.00 in0.0 mm 0.00 in0.0 mm 0.05 in1.3 mm
11:20 AM 47.8°F8.8°C 37.8°F3.2°C 68% 1.6 mph SSW2.6 kmh SSW 7.9 mph12.7 kmh 29.62 in1003.0 mb 0.00 in0.0 mm 0.00 in0.0 mm 0.05 in1.3 mm
11:15 AM 47.8°F8.8°C 37.8°F3.2°C 68% 4.4 mph W7.1 kmh W 7.9 mph12.7 kmh 29.62 in1003.0 mb 0.00 in0.0 mm 0.00 in0.0 mm 0.05 in1.3 mm
11:10 AM 47.7°F8.7°C 38.0°F3.3°C 69% 1.9 mph WNW3.1 kmh WNW 7.1 mph11.4 kmh 29.59 in1002.0 mb 0.00 in0.0 mm 0.00 in0.0 mm 0.05 in1.3 mm
11:05 AM 47.8°F8.8°C 37.8°F3.2°C 68% 6.0 mph W9.7 kmh W 11.5 mph18.5 kmh 29.59 in1002.0 mb 0.00 in0.0 mm 0.00 in0.0 mm 0.05 in1.3 mm
11:00 AM 48.2°F9.0°C 38.1°F3.4°C 68% 3.3 mph NW5.3 kmh NW 11.5 mph18.5 kmh 29.59 in1002.0 mb 0.00 in0.0 mm 0.00 in0.0 mm 0.05 in1.3 mm
10:55 AM 48.4°F9.1°C 37.9°F3.3°C 67% 7.1 mph NNW11.4 kmh NNW 10.4 mph16.7 kmh 29.59 in1002.0 mb 0.00 in0.0 mm 0.00 in0.0 mm 0.05 in1.3 mm
10:50 AM 48.2°F9.0°C 38.1°F3.4°C 68% 4.6 mph NW7.4 kmh NW 10.4 mph16.7 kmh 29.59 in1002.0 mb 0.00 in0.0 mm 0.00 in0.0 mm 0.05 in1.3 mm
10:45 AM 48.2°F9.0°C 38.5°F3.6°C 69% 7.9 mph NNW12.7 kmh NNW 9.6 mph15.4 kmh 29.59 in1002.0 mb 0.00 in0.0 mm 0.00 in0.0 mm 0.05 in1.3 mm
10:40 AM 48.0°F8.9°C 38.3°F3.5°C 69% 6.8 mph NNE10.9 kmh NNE 7.6 mph12.2 kmh 29.59 in1002.0 mb 0.00 in0.0 mm 0.00 in0.0 mm 0.05 in1.3 mm
10:35 AM 48.2°F9.0°C 38.5°F3.6°C 69% 2.5 mph SSE4.0 kmh SSE 7.6 mph12.2 kmh 29.59 in1002.0 mb 0.00 in0.0 mm 0.00 in0.0 mm 0.05 in1.3 mm
10:30 AM 48.2°F9.0°C 38.9°F3.8°C 70% 3.8 mph NNW6.1 kmh NNW 13.4 mph21.6 kmh 29.59 in1002.0 mb 0.00 in0.0 mm 0.00 in0.0 mm 0.05 in1.3 mm
10:25 AM 48.0°F8.9°C 39.1°F3.9°C 71% 4.4 mph NW7.1 kmh NW 13.4 mph21.6 kmh 29.59 in1002.0 mb 0.00 in0.0 mm 0.00 in0.0 mm 0.05 in1.3 mm
10:20 AM 47.7°F8.7°C 38.4°F3.6°C 70% 13.4 mph WNW21.6 kmh WNW 13.4 mph21.6 kmh 29.59 in1002.0 mb 0.00 in0.0 mm 0.00 in0.0 mm 0.05 in1.3 mm
10:15 AM 47.5°F8.6°C 38.2°F3.4°C 70% 3.8 mph NW6.1 kmh NW 9.6 mph15.4 kmh 29.59 in1002.0 mb 0.00 in0.0 mm 0.00 in0.0 mm 0.05 in1.3 mm
10:10 AM 47.1°F8.4°C 38.2°F3.4°C 71% 1.9 mph NW3.1 kmh NW 9.6 mph15.4 kmh 29.59 in1002.0 mb 0.00 in0.0 mm 0.00 in0.0 mm 0.05 in1.3 mm
10:05 AM 46.6°F8.1°C 37.3°F2.9°C 70% 3.3 mph NW5.3 kmh NW 7.9 mph12.7 kmh 29.59 in1002.0 mb 0.00 in0.0 mm 0.00 in0.0 mm 0.05 in1.3 mm
10:00 AM 46.2°F7.9°C 37.3°F2.9°C 71% 7.9 mph W12.7 kmh W 9.8 mph15.8 kmh 29.59 in1002.0 mb 0.00 in0.0 mm 0.00 in0.0 mm 0.05 in1.3 mm
09:55 AM 46.0°F7.8°C 37.9°F3.3°C 73% 9.8 mph WNW15.8 kmh WNW 9.8 mph15.8 kmh 29.59 in1002.0 mb 0.00 in0.0 mm 0.00 in0.0 mm 0.05 in1.3 mm
09:50 AM 45.7°F7.6°C 36.8°F2.7°C 71% 7.1 mph NW11.4 kmh NW 9.0 mph14.5 kmh 29.59 in1002.0 mb 0.00 in0.0 mm 0.00 in0.0 mm 0.05 in1.3 mm
09:45 AM 45.1°F7.3°C 36.6°F2.6°C 72% 1.9 mph W3.1 kmh W 9.0 mph14.5 kmh 29.59 in1002.0 mb 0.00 in0.0 mm 0.00 in0.0 mm 0.05 in1.3 mm
09:40 AM 44.8°F7.1°C 35.6°F2.0°C 70% 5.2 mph WNW8.4 kmh WNW 11.5 mph18.5 kmh 29.59 in1002.0 mb 0.00 in0.0 mm 0.00 in0.0 mm 0.05 in1.3 mm
09:35 AM 44.4°F6.9°C 35.6°F2.0°C 71% 2.7 mph W4.3 kmh W 11.5 mph18.5 kmh 29.59 in1002.0 mb 0.00 in0.0 mm 0.00 in0.0 mm 0.05 in1.3 mm
09:30 AM 44.4°F6.9°C 35.6°F2.0°C 71% 5.2 mph WSW8.4 kmh WSW 9.0 mph14.5 kmh 29.59 in1002.0 mb 0.00 in0.0 mm 0.00 in0.0 mm 0.05 in1.3 mm
09:25 AM 44.4°F6.9°C 35.6°F2.0°C 71% 4.6 mph W7.4 kmh W 9.0 mph14.5 kmh 29.56 in1001.0 mb 0.00 in0.0 mm 0.00 in0.0 mm 0.05 in1.3 mm
09:20 AM 44.2°F6.8°C 35.8°F2.1°C 72% 3.3 mph SW5.3 kmh SW 7.6 mph12.2 kmh 29.56 in1001.0 mb 0.00 in0.0 mm 0.00 in0.0 mm 0.05 in1.3 mm
09:15 AM 44.4°F6.9°C 36.0°F2.2°C 72% 4.6 mph WSW7.4 kmh WSW 11.2 mph18.0 kmh 29.56 in1001.0 mb 0.00 in0.0 mm 0.00 in0.0 mm 0.05 in1.3 mm
09:10 AM 44.4°F6.9°C 35.6°F2.0°C 71% 4.9 mph SW7.9 kmh SW 11.2 mph18.0 kmh 29.56 in1001.0 mb 0.00 in0.0 mm 0.00 in0.0 mm 0.05 in1.3 mm
09:05 AM 44.4°F6.9°C 35.6°F2.0°C 71% 4.9 mph SE7.9 kmh SE 12.0 mph19.3 kmh 29.56 in1001.0 mb 0.00 in0.0 mm 0.00 in0.0 mm 0.05 in1.3 mm
09:00 AM 44.2°F6.8°C 35.8°F2.1°C 72% 5.7 mph NNW9.2 kmh NNW 12.0 mph19.3 kmh 29.56 in1001.0 mb 0.00 in0.0 mm 0.00 in0.0 mm 0.05 in1.3 mm
08:55 AM 44.2°F6.8°C 35.4°F1.9°C 71% 8.5 mph NW13.7 kmh NW 12.0 mph19.3 kmh 29.56 in1001.0 mb 0.00 in0.0 mm 0.00 in0.0 mm 0.05 in1.3 mm
08:50 AM 44.1°F6.7°C 35.3°F1.8°C 71% 1.9 mph NW3.1 kmh NW 10.4 mph16.7 kmh 29.56 in1001.0 mb 0.00 in0.0 mm 0.00 in0.0 mm 0.05 in1.3 mm
08:45 AM 44.1°F6.7°C 35.6°F2.0°C 72% 7.4 mph NNW11.9 kmh NNW 17.5 mph28.2 kmh 29.56 in1001.0 mb 0.00 in0.0 mm 0.00 in0.0 mm 0.05 in1.3 mm
08:40 AM 43.9°F6.6°C 35.1°F1.7°C 71% 3.8 mph N6.1 kmh N 17.5 mph28.2 kmh 29.53 in1000.0 mb 0.00 in0.0 mm 0.00 in0.0 mm 0.05 in1.3 mm
08:35 AM 43.5°F6.4°C 34.7°F1.5°C 71% 4.9 mph W7.9 kmh W 12.8 mph20.6 kmh 29.53 in1000.0 mb 0.00 in0.0 mm 0.00 in0.0 mm 0.05 in1.3 mm
08:30 AM 43.5°F6.4°C 35.1°F1.7°C 72% 7.9 mph SW12.7 kmh SW 12.8 mph20.6 kmh 29.53 in1000.0 mb 0.00 in0.0 mm 0.00 in0.0 mm 0.05 in1.3 mm
08:25 AM 43.5°F6.4°C 34.7°F1.5°C 71% 3.5 mph N5.6 kmh N 11.2 mph18.0 kmh 29.53 in1000.0 mb 0.00 in0.0 mm 0.00 in0.0 mm 0.05 in1.3 mm
08:20 AM 43.3°F6.3°C 34.6°F1.4°C 71% 10.4 mph ENE16.7 kmh ENE 11.2 mph18.0 kmh 29.53 in1000.0 mb 0.00 in0.0 mm 0.00 in0.0 mm 0.05 in1.3 mm
08:15 AM 43.3°F6.3°C 34.6°F1.4°C 71% 3.8 mph NNE6.1 kmh NNE 9.8 mph15.8 kmh 29.53 in1000.0 mb 0.00 in0.0 mm 0.00 in0.0 mm 0.05 in1.3 mm
08:10 AM 43.5°F6.4°C 34.4°F1.3°C 70% 7.1 mph S11.4 kmh S 10.6 mph17.1 kmh 29.50 in999.0 mb 0.00 in0.0 mm 0.00 in0.0 mm 0.05 in1.3 mm
08:05 AM 43.5°F6.4°C 34.0°F1.1°C 69% 9.8 mph N15.8 kmh N 13.4 mph21.6 kmh 29.50 in999.0 mb 0.00 in0.0 mm 0.00 in0.0 mm 0.05 in1.3 mm
08:00 AM 43.5°F6.4°C 34.0°F1.1°C 69% 10.6 mph NNW17.1 kmh NNW 13.4 mph21.6 kmh 29.50 in999.0 mb 0.00 in0.0 mm 0.00 in0.0 mm 0.05 in1.3 mm
07:55 AM 43.7°F6.5°C 34.2°F1.2°C 69% 12.8 mph N20.6 kmh N 12.8 mph20.6 kmh 29.50 in999.0 mb 0.00 in0.0 mm 0.00 in0.0 mm 0.05 in1.3 mm
07:50 AM 43.7°F6.5°C 34.2°F1.2°C 69% 12.3 mph NW19.8 kmh NW 12.3 mph19.8 kmh 29.50 in999.0 mb 0.00 in0.0 mm 0.00 in0.0 mm 0.05 in1.3 mm
07:45 AM 43.9°F6.6°C 34.4°F1.3°C 69% 7.6 mph NNW12.2 kmh NNW 12.0 mph19.3 kmh 29.50 in999.0 mb 0.00 in0.0 mm 0.00 in0.0 mm 0.05 in1.3 mm
07:40 AM 44.1°F6.7°C 34.2°F1.2°C 68% 6.5 mph N10.5 kmh N 15.0 mph24.1 kmh 29.47 in998.0 mb 0.00 in0.0 mm 0.00 in0.0 mm 0.05 in1.3 mm
07:35 AM 44.2°F6.8°C 34.3°F1.3°C 68% 9.6 mph NW15.4 kmh NW 15.0 mph24.1 kmh 29.47 in998.0 mb 0.00 in0.0 mm 0.00 in0.0 mm 0.05 in1.3 mm
07:30 AM 44.4°F6.9°C 34.5°F1.4°C 68% 7.1 mph WNW11.4 kmh WNW 17.2 mph27.7 kmh 29.47 in998.0 mb 0.00 in0.0 mm 0.00 in0.0 mm 0.05 in1.3 mm
07:25 AM 44.6°F7.0°C 33.9°F1.1°C 66% 4.4 mph NW7.1 kmh NW 17.2 mph27.7 kmh 29.45 in997.3 mb 0.00 in0.0 mm 0.00 in0.0 mm 0.05 in1.3 mm
07:20 AM 45.0°F7.2°C 34.3°F1.3°C 66% 5.2 mph N8.4 kmh N 16.1 mph25.9 kmh 29.45 in997.3 mb 0.00 in0.0 mm 0.00 in0.0 mm 0.05 in1.3 mm
07:15 AM 45.1°F7.3°C 34.1°F1.2°C 65% 13.4 mph NNW21.6 kmh NNW 16.1 mph25.9 kmh 29.45 in997.3 mb 0.00 in0.0 mm 0.00 in0.0 mm 0.05 in1.3 mm
07:10 AM 45.3°F7.4°C 35.0°F1.7°C 67% 15.8 mph NW25.4 kmh NW 16.1 mph25.9 kmh 29.45 in997.3 mb 0.00 in0.0 mm 0.00 in0.0 mm 0.05 in1.3 mm
07:05 AM 45.5°F7.5°C 35.2°F1.8°C 67% 11.5 mph NNW18.5 kmh NNW 16.1 mph25.9 kmh 29.45 in997.3 mb 0.00 in0.0 mm 0.00 in0.0 mm 0.05 in1.3 mm
07:00 AM 45.9°F7.7°C 34.4°F1.3°C 64% 10.4 mph W16.7 kmh W 15.6 mph25.1 kmh 29.45 in997.3 mb 0.00 in0.0 mm 0.00 in0.0 mm 0.05 in1.3 mm
06:55 AM 46.0°F7.8°C 34.5°F1.4°C 64% 6.0 mph W9.7 kmh W 27.0 mph43.5 kmh 29.41 in995.9 mb 0.00 in0.0 mm 0.00 in0.0 mm 0.05 in1.3 mm
06:50 AM 46.2°F7.9°C 34.7°F1.5°C 64% 14.7 mph WNW23.7 kmh WNW 27.0 mph43.5 kmh 29.41 in995.9 mb 0.00 in0.0 mm 0.00 in0.0 mm 0.05 in1.3 mm
06:45 AM 46.4°F8.0°C 34.9°F1.6°C 64% 11.7 mph NW18.8 kmh NW 20.7 mph33.3 kmh 29.41 in995.9 mb 0.00 in0.0 mm 0.00 in0.0 mm 0.05 in1.3 mm
06:40 AM 46.8°F8.2°C 35.2°F1.8°C 64% 6.8 mph NNW10.9 kmh NNW 22.7 mph36.5 kmh 29.39 in995.3 mb 0.00 in0.0 mm 0.00 in0.0 mm 0.05 in1.3 mm
06:35 AM 46.9°F8.3°C 35.4°F1.9°C 64% 10.4 mph N16.7 kmh N 22.7 mph36.5 kmh 29.39 in995.3 mb 0.00 in0.0 mm 0.00 in0.0 mm 0.05 in1.3 mm
06:30 AM 47.1°F8.4°C 36.0°F2.2°C 65% 22.7 mph N36.5 kmh N 22.7 mph36.5 kmh 29.39 in995.3 mb 0.00 in0.0 mm 0.00 in0.0 mm 0.05 in1.3 mm
06:25 AM 47.3°F8.5°C 34.9°F1.6°C 62% 9.6 mph N15.4 kmh N 19.4 mph31.2 kmh 29.39 in995.3 mb 0.00 in0.0 mm 0.00 in0.0 mm 0.05 in1.3 mm
06:20 AM 47.7°F8.7°C 36.9°F2.7°C 66% 18.6 mph SE29.9 kmh SE 18.6 mph29.9 kmh 29.39 in995.3 mb 0.00 in0.0 mm 0.00 in0.0 mm 0.05 in1.3 mm
06:15 AM 47.8°F8.8°C 37.4°F3.0°C 67% 12.6 mph SSW20.3 kmh SSW 16.9 mph27.2 kmh 29.39 in995.3 mb 0.00 in0.0 mm 0.00 in0.0 mm 0.05 in1.3 mm
06:10 AM 48.0°F8.9°C 38.7°F3.7°C 70% 9.0 mph NNW14.5 kmh NNW 12.8 mph20.6 kmh 29.36 in994.2 mb 0.00 in0.0 mm 0.00 in0.0 mm 0.05 in1.3 mm
06:05 AM 48.4°F9.1°C 39.0°F3.9°C 70% 6.5 mph WNW10.5 kmh WNW 17.7 mph28.5 kmh 29.36 in994.2 mb 0.00 in0.0 mm 0.00 in0.0 mm 0.05 in1.3 mm
06:00 AM 48.7°F9.3°C 39.4°F4.1°C 70% 12.8 mph NW20.6 kmh NW 26.7 mph43.0 kmh 29.36 in994.2 mb 0.00 in0.0 mm 0.00 in0.0 mm 0.05 in1.3 mm
05:55 AM 48.7°F9.3°C 40.1°F4.5°C 72% 7.4 mph NE11.9 kmh NE 26.7 mph43.0 kmh 29.33 in993.2 mb 0.00 in0.0 mm 0.00 in0.0 mm 0.05 in1.3 mm
05:50 AM 48.7°F9.3°C 40.5°F4.7°C 73% 9.8 mph NNW15.8 kmh NNW 18.8 mph30.3 kmh 29.33 in993.2 mb 0.00 in0.0 mm 0.00 in0.0 mm 0.05 in1.3 mm
05:45 AM 48.9°F9.4°C 41.0°F5.0°C 74% 10.6 mph W17.1 kmh W 20.5 mph33.0 kmh 29.33 in993.2 mb 0.00 in0.0 mm 0.00 in0.0 mm 0.05 in1.3 mm
05:40 AM 48.9°F9.4°C 40.3°F4.6°C 72% 4.9 mph SW7.9 kmh SW 20.5 mph33.0 kmh 29.30 in992.2 mb 0.00 in0.0 mm 0.00 in0.0 mm 0.05 in1.3 mm
05:35 AM 49.1°F9.5°C 41.2°F5.1°C 74% 13.1 mph WSW21.1 kmh WSW 13.1 mph21.1 kmh 29.30 in992.2 mb 0.00 in0.0 mm 0.00 in0.0 mm 0.05 in1.3 mm
05:30 AM 49.1°F9.5°C 41.2°F5.1°C 74% 4.4 mph SW7.1 kmh SW 19.9 mph32.0 kmh 29.30 in992.2 mb 0.00 in0.0 mm 0.00 in0.0 mm 0.05 in1.3 mm
05:25 AM 49.3°F9.6°C 41.0°F5.0°C 73% 12.3 mph S19.8 kmh S 19.9 mph32.0 kmh 29.30 in992.2 mb 0.00 in0.0 mm 0.00 in0.0 mm 0.05 in1.3 mm
05:20 AM 49.5°F9.7°C 41.5°F5.3°C 74% 11.2 mph SSW18.0 kmh SSW 18.6 mph29.9 kmh 29.30 in992.2 mb 0.00 in0.0 mm 0.00 in0.0 mm 0.05 in1.3 mm
05:15 AM 49.6°F9.8°C 41.3°F5.2°C 73% 9.6 mph NW15.4 kmh NW 21.3 mph34.3 kmh 29.30 in992.2 mb 0.00 in0.0 mm 0.00 in0.0 mm 0.05 in1.3 mm
05:10 AM 49.8°F9.9°C 41.9°F5.5°C 74% 17.5 mph NW28.2 kmh NW 21.3 mph34.3 kmh 29.30 in992.2 mb 0.00 in0.0 mm 0.00 in0.0 mm 0.05 in1.3 mm
05:05 AM 50.0°F10.0°C 42.0°F5.6°C 74% 17.2 mph NW27.7 kmh NW 17.2 mph27.7 kmh 29.30 in992.2 mb 0.00 in0.0 mm 0.00 in0.0 mm 0.05 in1.3 mm
05:00 AM 50.0°F10.0°C 42.7°F5.9°C 76% 9.8 mph NE15.8 kmh NE 22.7 mph36.5 kmh 29.30 in992.2 mb 0.00 in0.0 mm 0.00 in0.0 mm 0.05 in1.3 mm
04:55 AM 50.2°F10.1°C 42.2°F5.7°C 74% 9.3 mph W15.0 kmh W 22.7 mph36.5 kmh 29.27 in991.2 mb 0.00 in0.0 mm 0.00 in0.0 mm 0.05 in1.3 mm
04:50 AM 50.4°F10.2°C 42.4°F5.8°C 74% 10.6 mph SW17.1 kmh SW 17.5 mph28.2 kmh 29.27 in991.2 mb 0.00 in0.0 mm 0.00 in0.0 mm 0.05 in1.3 mm
04:45 AM 50.2°F10.1°C 43.2°F6.2°C 77% 6.5 mph WSW10.5 kmh WSW 20.5 mph33.0 kmh 29.27 in991.2 mb 0.00 in0.0 mm 0.00 in0.0 mm 0.05 in1.3 mm
04:40 AM 50.4°F10.2°C 43.4°F6.3°C 77% 10.6 mph WSW17.1 kmh WSW 20.5 mph33.0 kmh 29.27 in991.2 mb 0.00 in0.0 mm 0.00 in0.0 mm 0.05 in1.3 mm
04:35 AM 50.4°F10.2°C 44.1°F6.7°C 79% 18.6 mph SW29.9 kmh SW 21.3 mph34.3 kmh 29.27 in991.2 mb 0.00 in0.0 mm 0.00 in0.0 mm 0.05 in1.3 mm
04:30 AM 50.5°F10.3°C 43.6°F6.4°C 77% 10.6 mph WSW17.1 kmh WSW 21.3 mph34.3 kmh 29.27 in991.2 mb 0.00 in0.0 mm 0.00 in0.0 mm 0.05 in1.3 mm
04:25 AM 50.5°F10.3°C 43.9°F6.6°C 78% 21.3 mph S34.3 kmh S 21.3 mph34.3 kmh 29.27 in991.2 mb 0.00 in0.0 mm 0.00 in0.0 mm 0.05 in1.3 mm
04:20 AM 50.5°F10.3°C 44.3°F6.8°C 79% 9.3 mph SW15.0 kmh SW 16.1 mph25.9 kmh 29.27 in991.2 mb 0.00 in0.0 mm 0.00 in0.0 mm 0.05 in1.3 mm
04:15 AM 50.9°F10.5°C 43.9°F6.6°C 77% 9.0 mph SW14.5 kmh SW 18.6 mph29.9 kmh 29.27 in991.2 mb 0.00 in0.0 mm 0.00 in0.0 mm 0.05 in1.3 mm
04:10 AM 50.9°F10.5°C 44.6°F7.0°C 79% 10.6 mph SW17.1 kmh SW 18.8 mph30.3 kmh 29.24 in990.2 mb 0.00 in0.0 mm 0.00 in0.0 mm 0.05 in1.3 mm
04:05 AM 50.9°F10.5°C 45.3°F7.4°C 81% 18.8 mph SW30.3 kmh SW 18.8 mph30.3 kmh 29.24 in990.2 mb 0.00 in0.0 mm 0.00 in0.0 mm 0.05 in1.3 mm
04:00 AM 51.1°F10.6°C 45.8°F7.7°C 82% 4.9 mph S7.9 kmh S 16.1 mph25.9 kmh 29.24 in990.2 mb 0.00 in0.0 mm 0.00 in0.0 mm 0.05 in1.3 mm
03:55 AM 50.9°F10.5°C 46.2°F7.9°C 84% 16.1 mph SW25.9 kmh SW 16.1 mph25.9 kmh 29.24 in990.2 mb 0.00 in0.0 mm 0.00 in0.0 mm 0.05 in1.3 mm
03:50 AM 50.9°F10.5°C 46.2°F7.9°C 84% 12.3 mph WSW19.8 kmh WSW 12.8 mph20.6 kmh 29.24 in990.2 mb 0.00 in0.0 mm 0.00 in0.0 mm 0.05 in1.3 mm
03:45 AM 50.9°F10.5°C 45.9°F7.7°C 83% 12.0 mph NW19.3 kmh NW 18.8 mph30.3 kmh 29.24 in990.2 mb 0.00 in0.0 mm 0.00 in0.0 mm 0.05 in1.3 mm
03:40 AM 50.9°F10.5°C 46.2°F7.9°C 84% 13.1 mph ENE21.1 kmh ENE 18.8 mph30.3 kmh 29.27 in991.2 mb 0.00 in0.0 mm 0.00 in0.0 mm 0.05 in1.3 mm
03:35 AM 50.9°F10.5°C 46.6°F8.1°C 85% 7.9 mph SE12.7 kmh SE 24.8 mph39.9 kmh 29.27 in991.2 mb 0.00 in0.0 mm 0.00 in0.0 mm 0.05 in1.3 mm
03:30 AM 50.7°F10.4°C 47.0°F8.3°C 87% 24.8 mph SSW39.9 kmh SSW 24.8 mph39.9 kmh 29.27 in991.2 mb 0.00 in0.0 mm 0.00 in0.0 mm 0.05 in1.3 mm
03:25 AM 50.7°F10.4°C 47.0°F8.3°C 87% 12.3 mph SSW19.8 kmh SSW 18.6 mph29.9 kmh 29.27 in991.2 mb 0.00 in0.0 mm 0.00 in0.0 mm 0.05 in1.3 mm
03:20 AM 50.7°F10.4°C 47.0°F8.3°C 87% 8.2 mph SW13.2 kmh SW 17.2 mph27.7 kmh 29.27 in991.2 mb 0.05 in1.3 mm 0.00 in0.0 mm 0.05 in1.3 mm
03:15 AM 50.5°F10.3°C 47.1°F8.4°C 88% 17.2 mph SSW27.7 kmh SSW 18.0 mph29.0 kmh 29.27 in991.2 mb 0.05 in1.3 mm 0.00 in0.0 mm 0.05 in1.3 mm
03:10 AM 50.4°F10.2°C 47.5°F8.6°C 90% 18.0 mph S29.0 kmh S 18.0 mph29.0 kmh 29.27 in991.2 mb 0.05 in1.3 mm 0.00 in0.0 mm 0.05 in1.3 mm
03:05 AM 50.4°F10.2°C 47.8°F8.8°C 91% 13.4 mph S21.6 kmh S 13.4 mph21.6 kmh 29.27 in991.2 mb 0.05 in1.3 mm 0.00 in0.0 mm 0.05 in1.3 mm
03:00 AM 50.4°F10.2°C 47.8°F8.8°C 91% 8.5 mph SW13.7 kmh SW 12.3 mph19.8 kmh 29.27 in991.2 mb 0.05 in1.3 mm 0.00 in0.0 mm 0.05 in1.3 mm
02:55 AM 50.2°F10.1°C 47.7°F8.7°C 91% 7.6 mph WSW12.2 kmh WSW 12.3 mph19.8 kmh 29.30 in992.2 mb 0.05 in1.3 mm 0.00 in0.0 mm 0.05 in1.3 mm
02:50 AM 50.2°F10.1°C 47.9°F8.8°C 92% 7.9 mph S12.7 kmh S 17.7 mph28.5 kmh 29.30 in992.2 mb 0.05 in1.3 mm 0.00 in0.0 mm 0.05 in1.3 mm
02:45 AM 50.0°F10.0°C 48.3°F9.1°C 94% 17.7 mph S28.5 kmh S 17.7 mph28.5 kmh 29.30 in992.2 mb 0.05 in1.3 mm 0.00 in0.0 mm 0.05 in1.3 mm
02:40 AM 49.8°F9.9°C 48.4°F9.1°C 95% 11.7 mph SW18.8 kmh SW 21.3 mph34.3 kmh 29.30 in992.2 mb 0.05 in1.3 mm 0.00 in0.0 mm 0.05 in1.3 mm
02:35 AM 49.6°F9.8°C 48.3°F9.1°C 95% 15.3 mph SW24.6 kmh SW 24.6 mph39.6 kmh 29.30 in992.2 mb 0.05 in1.3 mm 0.00 in0.0 mm 0.05 in1.3 mm
02:30 AM 49.5°F9.7°C 48.4°F9.1°C 96% 21.3 mph SW34.3 kmh SW 37.9 mph61.0 kmh 29.30 in992.2 mb 0.05 in1.3 mm 0.00 in0.0 mm 0.05 in1.3 mm
02:25 AM 49.1°F9.5°C 48.0°F8.9°C 96% 23.7 mph SW38.1 kmh SW 37.9 mph61.0 kmh 29.30 in992.2 mb 0.05 in1.3 mm 0.60 in15.2 mm 0.05 in1.3 mm
02:20 AM 49.1°F9.5°C 48.3°F9.1°C 97% 7.4 mph SW11.9 kmh SW 19.6 mph31.5 kmh 29.30 in992.2 mb 0.00 in0.0 mm 0.00 in0.0 mm 0.03 in0.8 mm
02:15 AM 48.9°F9.4°C 47.8°F8.8°C 96% 6.5 mph SW10.5 kmh SW 18.8 mph30.3 kmh 29.30 in992.2 mb 0.00 in0.0 mm 0.00 in0.0 mm 0.03 in0.8 mm
02:10 AM 48.7°F9.3°C 47.7°F8.7°C 96% 13.4 mph SW21.6 kmh SW 18.8 mph30.3 kmh 29.33 in993.2 mb 0.00 in0.0 mm 0.00 in0.0 mm 0.03 in0.8 mm
02:05 AM 48.7°F9.3°C 47.7°F8.7°C 96% 7.1 mph SW11.4 kmh SW 21.8 mph35.1 kmh 29.33 in993.2 mb 0.00 in0.0 mm 0.00 in0.0 mm 0.03 in0.8 mm
02:00 AM 48.6°F9.2°C 47.5°F8.6°C 96% 5.2 mph SW8.4 kmh SW 21.8 mph35.1 kmh 29.33 in993.2 mb 0.00 in0.0 mm 0.00 in0.0 mm 0.03 in0.8 mm
01:55 AM 48.4°F9.1°C 47.3°F8.5°C 96% 6.0 mph SW9.7 kmh SW 15.8 mph25.4 kmh 29.33 in993.2 mb 0.00 in0.0 mm 0.00 in0.0 mm 0.03 in0.8 mm
01:50 AM 48.2°F9.0°C 47.1°F8.4°C 96% 13.4 mph SSW21.6 kmh SSW 13.4 mph21.6 kmh 29.33 in993.2 mb 0.00 in0.0 mm 0.00 in0.0 mm 0.03 in0.8 mm
01:45 AM 48.0°F8.9°C 46.9°F8.3°C 96% 9.6 mph SSW15.4 kmh SSW 13.1 mph21.1 kmh 29.33 in993.2 mb 0.00 in0.0 mm 0.00 in0.0 mm 0.03 in0.8 mm
01:40 AM 47.7°F8.7°C 46.6°F8.1°C 96% 9.8 mph SW15.8 kmh SW 15.0 mph24.1 kmh 29.36 in994.2 mb 0.00 in0.0 mm 0.00 in0.0 mm 0.03 in0.8 mm
01:35 AM 47.5°F8.6°C 46.4°F8.0°C 96% 7.4 mph SW11.9 kmh SW 16.4 mph26.4 kmh 29.36 in994.2 mb 0.00 in0.0 mm 0.00 in0.0 mm 0.03 in0.8 mm
01:30 AM 47.3°F8.5°C 46.2°F7.9°C 96% 12.6 mph WSW20.3 kmh WSW 18.0 mph29.0 kmh 29.36 in994.2 mb 0.00 in0.0 mm 0.00 in0.0 mm 0.03 in0.8 mm
01:25 AM 46.9°F8.3°C 45.9°F7.7°C 96% 11.7 mph SW18.8 kmh SW 18.0 mph29.0 kmh 29.36 in994.2 mb 0.00 in0.0 mm 0.00 in0.0 mm 0.03 in0.8 mm
01:20 AM 46.8°F8.2°C 45.7°F7.6°C 96% 4.9 mph SW7.9 kmh SW 14.5 mph23.3 kmh 29.36 in994.2 mb 0.00 in0.0 mm 0.00 in0.0 mm 0.03 in0.8 mm
01:15 AM 46.4°F8.0°C 45.3°F7.4°C 96% 6.5 mph SW10.5 kmh SW 15.0 mph24.1 kmh 29.36 in994.2 mb 0.00 in0.0 mm 0.00 in0.0 mm 0.03 in0.8 mm
01:10 AM 46.2°F7.9°C 45.1°F7.3°C 96% 4.1 mph SW6.6 kmh SW 15.0 mph24.1 kmh 29.39 in995.3 mb 0.00 in0.0 mm 0.00 in0.0 mm 0.03 in0.8 mm
01:05 AM 45.9°F7.7°C 44.8°F7.1°C 96% 7.1 mph SW11.4 kmh SW 15.0 mph24.1 kmh 29.39 in995.3 mb 0.00 in0.0 mm 0.00 in0.0 mm 0.03 in0.8 mm
01:00 AM 45.7°F7.6°C 44.6°F7.0°C 96% 12.3 mph SW19.8 kmh SW 17.7 mph28.5 kmh 29.39 in995.3 mb 0.00 in0.0 mm 0.00 in0.0 mm 0.03 in0.8 mm
12:55 AM 45.5°F7.5°C 44.4°F6.9°C 96% 17.7 mph SSW28.5 kmh SSW 17.7 mph28.5 kmh 29.41 in995.9 mb 0.03 in0.8 mm 0.00 in0.0 mm 0.03 in0.8 mm
12:50 AM 45.3°F7.4°C 44.2°F6.8°C 96% 7.6 mph S12.2 kmh S 13.9 mph22.4 kmh 29.41 in995.9 mb 0.03 in0.8 mm 0.00 in0.0 mm 0.03 in0.8 mm
12:45 AM 45.0°F7.2°C 43.9°F6.6°C 96% 10.4 mph SSW16.7 kmh SSW 16.1 mph25.9 kmh 29.41 in995.9 mb 0.03 in0.8 mm 0.00 in0.0 mm 0.03 in0.8 mm
12:40 AM 44.8°F7.1°C 43.7°F6.5°C 96% 13.9 mph SW22.4 kmh SW 16.1 mph25.9 kmh 29.45 in997.3 mb 0.03 in0.8 mm 0.00 in0.0 mm 0.03 in0.8 mm
12:35 AM 44.8°F7.1°C 43.4°F6.3°C 95% 12.0 mph SW19.3 kmh SW 18.6 mph29.9 kmh 29.45 in997.3 mb 0.03 in0.8 mm 0.00 in0.0 mm 0.03 in0.8 mm
12:30 AM 44.4°F6.9°C 43.1°F6.2°C 95% 5.2 mph SW8.4 kmh SW 21.0 mph33.8 kmh 29.45 in997.3 mb 0.03 in0.8 mm 0.00 in0.0 mm 0.03 in0.8 mm
12:25 AM 44.2°F6.8°C 42.9°F6.1°C 95% 16.1 mph SW25.9 kmh SW 23.7 mph38.1 kmh 29.45 in997.3 mb 0.03 in0.8 mm 0.00 in0.0 mm 0.03 in0.8 mm
12:20 AM 44.1°F6.7°C 42.7°F5.9°C 95% 7.4 mph SW11.9 kmh SW 23.7 mph38.1 kmh 29.45 in997.3 mb 0.03 in0.8 mm 0.00 in0.0 mm 0.03 in0.8 mm
12:15 AM 43.7°F6.5°C 42.1°F5.6°C 94% 15.6 mph SW25.1 kmh SW 15.6 mph25.1 kmh 29.45 in997.3 mb 0.03 in0.8 mm 0.00 in0.0 mm 0.03 in0.8 mm
12:10 AM 43.5°F6.4°C 41.6°F5.3°C 93% 7.6 mph SW12.2 kmh SW 15.3 mph24.6 kmh 29.47 in998.0 mb 0.03 in0.8 mm 0.00 in0.0 mm 0.03 in0.8 mm
12:05 AM 43.3°F6.3°C 41.5°F5.3°C 93% 12.6 mph SW20.3 kmh SW 14.7 mph23.7 kmh 29.47 in998.0 mb 0.03 in0.8 mm 0.00 in0.0 mm 0.03 in0.8 mm
12:00 AM 43.3°F6.3°C 41.5°F5.3°C 93% 9.3 mph SW15.0 kmh SW 18.6 mph29.9 kmh 29.47 in998.0 mb 0.03 in0.8 mm 0.00 in0.0 mm 0.03 in0.8 mm